Map

Track Data

SID SEASON NUMBER BASIN SUBBASIN NAME ISO_TIME NATURE LAT LON WMO_WIND WMO_PRES WMO_AGENCY TRACK_TYPE DIST2LAND LANDFALL IFLAG USA_AGENCY USA_ATCF_ID USA_LAT USA_LON USA_RECORD USA_STATUS USA_WIND USA_PRES USA_SSHS USA_R34_NE USA_R34_SE USA_R34_SW USA_R34_NW USA_R50_NE USA_R50_SE USA_R50_SW USA_R50_NW USA_R64_NE USA_R64_SE USA_R64_SW USA_R64_NW USA_POCI USA_ROCI USA_RMW USA_EYE TOKYO_LAT TOKYO_LON TOKYO_GRADE TOKYO_WIND TOKYO_PRES TOKYO_R50_DIR TOKYO_R50_LONG TOKYO_R50_SHORT TOKYO_R30_DIR TOKYO_R30_LONG TOKYO_R30_SHORT TOKYO_LAND CMA_LAT CMA_LON CMA_CAT CMA_WIND CMA_PRES HKO_LAT HKO_LON HKO_CAT HKO_WIND HKO_PRES NEWDELHI_LAT NEWDELHI_LON NEWDELHI_GRADE NEWDELHI_WIND NEWDELHI_PRES NEWDELHI_CI NEWDELHI_DP NEWDELHI_POCI REUNION_LAT REUNION_LON REUNION_TYPE REUNION_WIND REUNION_PRES REUNION_TNUM REUNION_CI REUNION_RMW REUNION_R34_NE REUNION_R34_SE REUNION_R34_SW REUNION_R34_NW REUNION_R50_NE REUNION_R50_SE REUNION_R50_SW REUNION_R50_NW REUNION_R64_NE REUNION_R64_SE REUNION_R64_SW REUNION_R64_NW BOM_LAT BOM_LON BOM_TYPE BOM_WIND BOM_PRES BOM_TNUM BOM_CI BOM_RMW BOM_R34_NE BOM_R34_SE BOM_R34_SW BOM_R34_NW BOM_R50_NE BOM_R50_SE BOM_R50_SW BOM_R50_NW BOM_R64_NE BOM_R64_SE BOM_R64_SW BOM_R64_NW BOM_ROCI BOM_POCI BOM_EYE BOM_POS_METHOD BOM_PRES_METHOD NADI_LAT NADI_LON NADI_CAT NADI_WIND NADI_PRES WELLINGTON_LAT WELLINGTON_LON WELLINGTON_WIND WELLINGTON_PRES DS824_LAT DS824_LON DS824_STAGE DS824_WIND DS824_PRES TD9636_LAT TD9636_LON TD9636_STAGE TD9636_WIND TD9636_PRES TD9635_LAT TD9635_LON TD9635_WIND TD9635_PRES TD9635_ROCI NEUMANN_LAT NEUMANN_LON NEUMANN_CLASS NEUMANN_WIND NEUMANN_PRES MLC_LAT MLC_LON MLC_CLASS MLC_WIND MLC_PRES USA_GUST BOM_GUST BOM_GUST_PER REUNION_GUST REUNION_GUST_PER USA_SEAHGT USA_SEARAD_NE USA_SEARAD_SE USA_SEARAD_SW USA_SEARAD_NW STORM_SPEED STORM_DIR
1952037S24060 1952 13 SI MM NOT_NAMED 1952-02-06 06:00:00 TS -24.1000 60.1000 main 472 472 O________OO___ jtwc_sh SH131952 -24.1000 60.1000 -1 -24.1000 60.1000 TC 25 -24.1000 60.1000 7 10 101
1952037S24060 1952 13 SI MM NOT_NAMED 1952-02-06 09:00:00 TS -24.2030 60.6620 main 515 515 P________PP___ SH131952 -24.1980 60.6724 -1 -24.1980 60.6724 TC 25 -24.2131 60.6412 7 10 102
1952037S24060 1952 13 SI MM NOT_NAMED 1952-02-06 12:00:00 TS -24.3067 61.1855 main 556 556 O________OP___ jtwc_sh SH131952 -24.3000 61.2000 -1 -24.3000 61.2000 TC 25 -24.3200 61.1564 7 9 103
1952037S24060 1952 13 SI MM NOT_NAMED 1952-02-06 15:00:00 TS -24.4105 61.6361 main 592 592 P________PP___ SH131952 -24.4073 61.6450 -1 -24.4073 61.6450 TC 30 -24.4169 61.6184 7 8 105
1952037S24060 1952 13 SI MM NOT_NAMED 1952-02-06 18:00:00 TS -24.5000 62.0000 main 628 628 O________OO___ jtwc_sh SH131952 -24.5000 62.0000 -1 -24.5000 62.0000 TC 35 -24.5000 62.0000 2 6 104
1952037S24060 1952 13 SI MM NOT_NAMED 1952-02-06 21:00:00 TS -24.5606 62.2773 main 657 657 P________PP___ SH131952 -24.5573 62.2726 -1 -24.5573 62.2726 TC 35 -24.5672 62.2867 2 5 103
1952037S24060 1952 13 SI MM NOT_NAMED 1952-02-07 00:00:00 TS -24.6069 62.5052 main 672 672 O________OP___ jtwc_sh SH131952 -24.6000 62.5000 -1 -24.6000 62.5000 TC 35 -24.6208 62.5155 2 4 104
1952037S24060 1952 13 SI MM NOT_NAMED 1952-02-07 03:00:00 TS -24.6596 62.7305 main 695 695 P________PP___ SH131952 -24.6573 62.7275 -1 -24.6573 62.7275 TC 35 -24.6641 62.7366 2 5 102
1952037S24060 1952 13 SI MM NOT_NAMED 1952-02-07 06:00:00 TS -24.7000 63.0000 main 718 718 O________OO___ jtwc_sh SH131952 -24.7000 63.0000 -1 -24.7000 63.0000 TC 35 -24.7000 63.0000 2 6 95
1952037S24060 1952 13 SI MM NOT_NAMED 1952-02-07 09:00:00 TS -24.7095 63.3758 main 749 749 P________PP___ SH131952 -24.7000 63.3701 -1 -24.7000 63.3701 TC 35 -24.7286 63.3870 2 7 91
1952037S24060 1952 13 SI MM NOT_NAMED 1952-02-07 12:00:00 TS -24.7169 63.8067 main 782 782 O________OP___ jtwc_sh SH131952 -24.7000 63.8000 -1 -24.7000 63.8000 TC 35 -24.7506 63.8202 2 8 93
1952037S24060 1952 13 SI MM NOT_NAMED 1952-02-07 15:00:00 TS -24.7525 64.2611 main 830 830 P________PP___ SH131952 -24.7426 64.2574 -1 -24.7426 64.2574 TC 35 -24.7723 64.2683 2 8 96
1952037S24060 1952 13 SI MM NOT_NAMED 1952-02-07 18:00:00 TS -24.8000 64.7000 main 863 863 O________OO___ jtwc_sh SH131952 -24.8000 64.7000 -1 -24.8000 64.7000 TC 35 -24.8000 64.7000 2 7 97
1952037S24060 1952 13 SI MM NOT_NAMED 1952-02-07 21:00:00 TS -24.8471 65.0564 main 898 898 P________PP___ SH131952 -24.8498 65.0650 -1 -24.8498 65.0650 TC 35 -24.8417 65.0392 2 6 99
1952037S24060 1952 13 SI MM NOT_NAMED 1952-02-08 00:00:00 TS -24.8969 65.3876 main 929 929 O________OP___ jtwc_sh SH131952 -24.9000 65.4000 -1 -24.9000 65.4000 TC 35 -24.8908 65.3627 2 6 100
1952037S24060 1952 13 SI MM NOT_NAMED 1952-02-08 03:00:00 TS -24.9480 65.7150 main 956 956 P________PP___ SH131952 -24.9497 65.7201 -1 -24.9497 65.7201 TC 35 -24.9447 65.7049 2 7 99
1952037S24060 1952 13 SI MM NOT_NAMED 1952-02-08 06:00:00 TS -25.0000 66.1000 main 996 996 O________OO___ jtwc_sh SH131952 -25.0000 66.1000 -1 -25.0000 66.1000 TC 35 -25.0000 66.1000 2 8 97
1952037S24060 1952 13 SI MM NOT_NAMED 1952-02-08 09:00:00 TS -25.0530 66.6148 main 1046 1046 P________PP___ SH131952 -25.0501 66.6200 -1 -25.0501 66.6200 TC 35 -25.0587 66.6044 2 10 96
1952037S24060 1952 13 SI MM NOT_NAMED 1952-02-08 12:00:00 TS -25.1053 67.1874 main 1100 1100 O________OP___ jtwc_sh SH131952 -25.1000 67.2000 -1 -25.1000 67.2000 TC 35 -25.1158 67.1621 2 10 96
1952037S24060 1952 13 SI MM NOT_NAMED 1952-02-08 15:00:00 TS -25.1599 67.7512 main 1159 1159 P________PP___ SH131952 -25.1574 67.7574 -1 -25.1574 67.7574 TC 35 -25.1649 67.7388 2 10 95
1952037S24060 1952 13 SI MM NOT_NAMED 1952-02-08 18:00:00 TS -25.2000 68.3000 main 1205 1205 O________OO___ jtwc_sh SH131952 -25.2000 68.3000 -1 -25.2000 68.3000 TC 35 -25.2000 68.3000 2 10 93
1952037S24060 1952 13 SI MM NOT_NAMED 1952-02-08 21:00:00 TS -25.2107 68.8164 main 1251 1251 P________PP___ SH131952 -25.2073 68.8151 -1 -25.2073 68.8151 TC 35 -25.2174 68.8190 2 9 90
1952037S24060 1952 13 SI MM NOT_NAMED 1952-02-09 00:00:00 TS -25.2067 69.3001 main 1298 1298 O________OP___ jtwc_sh SH131952 -25.2000 69.3000 -1 -25.2000 69.3000 TC 35 -25.2201 69.3003 2 9 89
1952037S24060 1952 13 SI MM NOT_NAMED 1952-02-09 03:00:00 TS -25.2028 69.7571 main 1345 1345 P________PP___ SH131952 -25.1978 69.7574 -1 -25.1978 69.7574 TC 35 -25.2129 69.7565 2 8 90
1952037S24060 1952 13 SI MM NOT_NAMED 1952-02-09 06:00:00 TS -25.2000 70.2000 main 1383 O________OO___ jtwc_sh SH131952 -25.2000 70.2000 -1 -25.2000 70.2000 TC 35 -25.2000 70.2000 2 8 90

About IBTrACS Database

This database is a web-friendly format of International Best Track Archive for Climate Stewardship (IBTrACS), a global best track data archive curated by NOAA dating back to 1842.

Updated: 2021-10-08